createdAt,value
2019-01-14T00:02:18.855Z,6.30
2019-01-14T00:04:47.118Z,6.20
2019-01-14T00:07:15.433Z,6.20
2019-01-14T00:09:43.682Z,6.20
2019-01-14T00:12:11.964Z,6.30
2019-01-14T00:14:40.206Z,6.20
2019-01-14T00:17:08.459Z,6.20
2019-01-14T00:19:36.692Z,6.20
2019-01-14T00:22:05.036Z,6.10
2019-01-14T00:24:33.278Z,6.00
2019-01-14T00:27:01.775Z,6.00
2019-01-14T00:29:30.132Z,5.90
2019-01-14T00:31:58.649Z,5.80
2019-01-14T00:34:27.067Z,5.80
2019-01-14T00:36:55.349Z,5.70
2019-01-14T00:39:23.582Z,5.70
2019-01-14T00:41:54.403Z,5.70
2019-01-14T00:44:22.647Z,5.70
2019-01-14T00:46:50.891Z,5.70
2019-01-14T00:49:19.159Z,5.80
2019-01-14T00:51:47.403Z,5.80
2019-01-14T00:54:15.648Z,5.70
2019-01-14T00:56:43.887Z,5.40
2019-01-14T00:59:12.131Z,5.10
2019-01-14T01:01:40.368Z,5.10
2019-01-14T01:04:08.621Z,5.10
2019-01-14T01:06:36.862Z,5.10
2019-01-14T01:09:07.734Z,5.10
2019-01-14T01:11:35.993Z,5.10
2019-01-14T01:14:04.253Z,5.20
2019-01-14T01:16:32.490Z,5.30
2019-01-14T01:19:00.750Z,5.20
2019-01-14T01:21:29.058Z,5.30
2019-01-14T01:23:57.299Z,5.40
2019-01-14T01:26:25.534Z,5.30
2019-01-14T01:28:53.814Z,5.30
2019-01-14T01:31:22.067Z,5.30
2019-01-14T01:33:50.589Z,5.40
2019-01-14T01:36:18.824Z,5.30
2019-01-14T01:38:47.067Z,5.10
2019-01-14T01:41:15.326Z,5.00
2019-01-14T01:43:43.585Z,4.90
2019-01-14T01:46:11.834Z,4.80
2019-01-14T01:48:40.248Z,4.90
2019-01-14T01:51:08.548Z,4.90
2019-01-14T01:53:36.796Z,5.00
2019-01-14T01:56:05.031Z,5.00
2019-01-14T01:58:33.286Z,5.00
2019-01-14T02:01:01.544Z,5.00
2019-01-14T02:03:29.811Z,5.10
2019-01-14T02:05:58.058Z,5.10
2019-01-14T02:08:26.307Z,5.10
2019-01-14T02:10:54.573Z,5.10
2019-01-14T02:13:22.898Z,5.20
2019-01-14T02:15:51.411Z,5.10
2019-01-14T02:18:20.621Z,5.20
2019-01-14T02:20:48.855Z,5.30
2019-01-14T02:23:17.123Z,5.30
2019-01-14T02:25:45.369Z,5.20
2019-01-14T02:28:13.627Z,5.20
2019-01-14T02:30:41.952Z,5.20
2019-01-14T02:33:10.231Z,5.20
2019-01-14T02:35:38.656Z,5.20
2019-01-14T02:38:06.973Z,5.20
2019-01-14T02:40:35.240Z,5.20
2019-01-14T02:43:03.487Z,5.20
2019-01-14T02:45:31.737Z,5.10
2019-01-14T02:48:00.005Z,5.10
2019-01-14T02:50:28.247Z,5.10
2019-01-14T02:52:56.487Z,5.10
2019-01-14T02:55:24.750Z,5.20
2019-01-14T02:57:52.987Z,5.10
2019-01-14T03:00:23.498Z,5.10
2019-01-14T03:02:51.778Z,5.10
2019-01-14T03:05:20.790Z,5.10
2019-01-14T03:07:49.033Z,5.10
2019-01-14T03:10:17.297Z,5.10
2019-01-14T03:12:45.619Z,5.00
2019-01-14T03:15:15.612Z,5.00
2019-01-14T03:17:43.855Z,4.90
2019-01-14T03:20:14.762Z,4.90
2019-01-14T03:22:43.009Z,4.90
2019-01-14T03:25:11.504Z,4.90
2019-01-14T03:27:39.732Z,4.90
2019-01-14T03:30:10.742Z,4.80
2019-01-14T03:32:39.061Z,4.80
2019-01-14T03:35:08.160Z,4.80
2019-01-14T03:37:36.393Z,4.80
2019-01-14T03:40:07.655Z,4.80
2019-01-14T03:42:35.906Z,4.80
2019-01-14T03:45:04.692Z,4.80
2019-01-14T03:47:32.932Z,4.80
2019-01-14T03:50:01.179Z,4.90
2019-01-14T03:52:29.421Z,4.90
2019-01-14T03:54:57.727Z,4.80
2019-01-14T03:57:25.959Z,4.90
2019-01-14T03:59:54.210Z,4.80
2019-01-14T04:02:22.443Z,4.80
2019-01-14T04:04:50.981Z,4.80
2019-01-14T04:07:19.233Z,4.70
2019-01-14T04:09:47.479Z,4.70
2019-01-14T04:12:15.733Z,4.70
2019-01-14T04:14:44.077Z,4.80
2019-01-14T04:17:12.378Z,4.80
2019-01-14T04:19:40.650Z,4.80
2019-01-14T04:22:08.882Z,4.80
2019-01-14T04:24:37.123Z,4.80
2019-01-14T04:27:05.387Z,4.70
2019-01-14T04:29:33.683Z,4.70
2019-01-14T04:32:01.945Z,4.70
2019-01-14T04:34:30.219Z,4.80
2019-01-14T04:36:58.456Z,4.70
2019-01-14T04:39:26.878Z,4.70
2019-01-14T04:41:55.143Z,4.70
2019-01-14T04:44:23.460Z,4.60
2019-01-14T04:46:51.713Z,4.60
2019-01-14T04:49:20.884Z,4.60
2019-01-14T04:51:49.114Z,4.60
2019-01-14T04:54:17.359Z,4.50
2019-01-14T04:56:45.621Z,4.50
2019-01-14T04:59:13.878Z,4.50
2019-01-14T05:01:42.126Z,4.50
2019-01-14T05:04:10.419Z,4.50
2019-01-14T05:06:38.690Z,4.40
2019-01-14T05:09:07.711Z,4.40
2019-01-14T05:11:35.975Z,4.30
2019-01-14T05:14:04.237Z,4.20
2019-01-14T05:16:32.477Z,4.20
2019-01-14T05:19:00.701Z,4.10
2019-01-14T05:21:28.968Z,4.10
2019-01-14T05:23:57.202Z,4.10
2019-01-14T05:26:25.451Z,4.00
2019-01-14T05:28:53.701Z,3.90
2019-01-14T05:31:21.961Z,3.90
2019-01-14T05:33:51.131Z,3.70
2019-01-14T05:36:19.391Z,3.40
2019-01-14T05:38:47.641Z,3.30
2019-01-14T05:41:15.892Z,3.30
2019-01-14T05:43:44.127Z,3.40
2019-01-14T05:46:12.383Z,3.40
2019-01-14T05:48:40.820Z,3.40
2019-01-14T05:51:09.230Z,3.50
2019-01-14T05:53:37.527Z,3.60
2019-01-14T05:56:05.781Z,3.60
2019-01-14T05:58:34.045Z,3.60
2019-01-14T06:01:02.469Z,3.50
2019-01-14T06:03:30.888Z,3.40
2019-01-14T06:05:59.182Z,3.40
2019-01-14T06:08:27.426Z,3.30
2019-01-14T06:10:55.680Z,3.20
2019-01-14T06:13:23.916Z,3.10
2019-01-14T06:15:52.451Z,3.10
2019-01-14T06:18:21.241Z,3.00
2019-01-14T06:20:49.487Z,3.00
2019-01-14T06:23:17.754Z,3.00
2019-01-14T06:25:46.077Z,2.90
2019-01-14T06:28:14.372Z,2.90
2019-01-14T06:30:42.628Z,2.90
2019-01-14T06:33:10.896Z,2.90
2019-01-14T06:35:39.147Z,3.00
2019-01-14T06:38:07.385Z,2.90
2019-01-14T06:40:35.634Z,2.90
2019-01-14T06:43:04.141Z,2.90
2019-01-14T06:45:32.468Z,2.80
2019-01-14T06:48:00.714Z,2.80
2019-01-14T06:50:28.977Z,2.80
2019-01-14T06:52:57.225Z,2.80
2019-01-14T06:55:25.472Z,2.90
2019-01-14T06:57:53.838Z,2.80
2019-01-14T07:00:24.222Z,2.80
2019-01-14T07:02:52.474Z,2.80
2019-01-14T07:05:21.346Z,2.80
2019-01-14T07:07:49.597Z,2.80
2019-01-14T07:10:22.950Z,2.80
2019-01-14T07:12:51.318Z,2.80
2019-01-14T07:15:19.565Z,2.80
2019-01-14T07:17:48.297Z,2.80
2019-01-14T07:20:16.976Z,2.80
2019-01-14T07:22:45.226Z,2.70
2019-01-14T07:25:13.757Z,2.70
2019-01-14T07:27:42.266Z,2.70
2019-01-14T07:30:16.138Z,2.70
2019-01-14T07:32:44.367Z,2.70
2019-01-14T07:35:12.637Z,2.70
2019-01-14T07:37:40.898Z,2.80
2019-01-14T07:40:11.767Z,2.90
2019-01-14T07:42:40.019Z,2.90
2019-01-14T07:45:10.727Z,2.80
2019-01-14T07:47:38.972Z,2.70
2019-01-14T07:50:09.658Z,2.70
2019-01-14T07:52:38.182Z,2.70
2019-01-14T07:55:06.423Z,2.80
2019-01-14T07:57:34.679Z,2.80
2019-01-14T08:00:04.866Z,2.80
2019-01-14T08:02:33.121Z,2.80
2019-01-14T08:05:01.372Z,2.80
2019-01-14T08:07:29.620Z,2.90
2019-01-14T08:09:57.868Z,2.90
2019-01-14T08:12:26.122Z,3.00
2019-01-14T08:14:54.447Z,3.00
2019-01-14T08:17:22.728Z,3.00
2019-01-14T08:19:51.526Z,3.00
2019-01-14T08:22:19.793Z,3.00
2019-01-14T08:24:48.031Z,3.00
2019-01-14T08:27:16.302Z,3.10
2019-01-14T08:29:44.551Z,3.00
2019-01-14T08:32:12.799Z,3.10
2019-01-14T08:34:41.054Z,3.00
2019-01-14T08:37:09.313Z,3.10
2019-01-14T08:39:37.581Z,3.00
2019-01-14T08:42:06.234Z,3.00
2019-01-14T08:44:36.133Z,3.00
2019-01-14T08:47:04.395Z,3.00
2019-01-14T08:49:32.641Z,3.00
2019-01-14T08:52:00.888Z,2.90
2019-01-14T08:54:29.219Z,2.90
2019-01-14T08:56:57.464Z,2.90
2019-01-14T08:59:25.703Z,2.90
2019-01-14T09:01:53.963Z,2.90
2019-01-14T09:04:24.304Z,2.80
2019-01-14T09:06:52.278Z,2.80
2019-01-14T09:09:20.524Z,2.80
2019-01-14T09:11:48.789Z,2.90
2019-01-14T09:14:17.038Z,2.90
2019-01-14T09:16:45.302Z,2.90
2019-01-14T09:19:13.545Z,2.90
2019-01-14T09:21:41.815Z,2.90
2019-01-14T09:24:10.061Z,2.90
2019-01-14T09:26:38.614Z,2.90
2019-01-14T09:29:06.850Z,2.90
2019-01-14T09:31:35.272Z,2.90
2019-01-14T09:34:05.196Z,2.90
2019-01-14T09:36:33.537Z,3.20
2019-01-14T09:39:01.791Z,3.60
2019-01-14T09:41:30.059Z,3.50
2019-01-14T09:44:19.338Z,3.60
2019-01-14T09:46:47.587Z,3.80
2019-01-14T09:49:15.819Z,4.00
2019-01-14T09:51:44.105Z,3.80
2019-01-14T09:54:12.347Z,3.60
2019-01-14T09:56:40.613Z,3.60
2019-01-14T09:59:08.866Z,3.90
2019-01-14T10:01:37.133Z,4.10
2019-01-14T10:04:05.454Z,4.00
2019-01-14T10:06:33.695Z,4.00
2019-01-14T10:09:01.949Z,4.20
2019-01-14T10:11:30.215Z,4.10
2019-01-14T10:13:58.461Z,4.10
2019-01-14T10:16:26.714Z,3.80
2019-01-14T10:18:54.981Z,3.90
2019-01-14T10:21:23.250Z,5.00
2019-01-14T10:23:51.925Z,4.70
2019-01-14T10:26:20.170Z,4.60
2019-01-14T10:28:48.460Z,4.30
2019-01-14T10:31:22.445Z,4.90
2019-01-14T10:33:51.669Z,4.40
2019-01-14T10:36:19.919Z,4.40
2019-01-14T10:38:50.455Z,4.60
2019-01-14T10:41:18.198Z,5.20
2019-01-14T10:43:46.662Z,4.70
2019-01-14T10:46:14.898Z,4.40
2019-01-14T10:48:43.140Z,4.30
2019-01-14T10:51:11.414Z,4.50
2019-01-14T10:53:39.659Z,4.80
2019-01-14T10:56:07.909Z,4.60
2019-01-14T10:58:36.178Z,4.30
2019-01-14T11:01:04.406Z,4.40
2019-01-14T11:03:32.655Z,4.90
2019-01-14T11:06:00.890Z,5.20
2019-01-14T11:08:29.137Z,5.40
2019-01-14T11:10:57.378Z,5.40
2019-01-14T11:13:25.647Z,5.50
2019-01-14T11:15:53.879Z,5.30
2019-01-14T11:18:22.127Z,5.30
2019-01-14T11:20:50.374Z,4.50
2019-01-14T11:23:18.624Z,4.70
2019-01-14T11:25:46.875Z,5.40
2019-01-14T11:28:15.146Z,5.00
2019-01-14T11:30:43.453Z,4.70
2019-01-14T11:33:11.691Z,4.60
2019-01-14T11:35:39.924Z,4.30
2019-01-14T11:38:11.439Z,5.00
2019-01-14T11:40:39.673Z,5.40
2019-01-14T11:43:08.068Z,5.30
2019-01-14T11:45:36.303Z,5.40
2019-01-14T11:48:04.618Z,5.30
2019-01-14T11:50:32.859Z,5.00
2019-01-14T11:53:01.135Z,5.10
2019-01-14T11:55:29.372Z,4.80
2019-01-14T11:57:57.636Z,4.90
2019-01-14T12:00:26.540Z,5.20
2019-01-14T12:02:54.829Z,5.40
2019-01-14T12:05:23.065Z,4.70
2019-01-14T12:07:51.997Z,4.70
2019-01-14T12:10:20.240Z,4.70
2019-01-14T12:12:48.498Z,4.60
2019-01-14T12:15:22.233Z,4.30
2019-01-14T12:17:50.479Z,4.20
2019-01-14T12:20:18.741Z,4.30
2019-01-14T12:22:46.988Z,4.80
2019-01-14T12:25:15.332Z,4.90
2019-01-14T12:27:43.577Z,4.80
2019-01-14T12:30:20.845Z,4.70
2019-01-14T12:32:49.086Z,4.40
2019-01-14T12:35:17.333Z,4.30
2019-01-14T12:37:45.690Z,4.30
2019-01-14T12:40:13.968Z,4.60
2019-01-14T12:42:42.209Z,4.70
2019-01-14T12:45:13.422Z,4.30
2019-01-14T12:47:41.654Z,4.20
2019-01-14T12:50:12.613Z,4.00
2019-01-14T12:52:40.863Z,3.90
2019-01-14T12:55:11.262Z,3.80
2019-01-14T12:57:39.608Z,3.80
2019-01-14T13:00:19.606Z,3.60
2019-01-14T13:02:47.866Z,3.60
2019-01-14T13:05:17.086Z,3.70
2019-01-14T13:07:45.395Z,3.60
2019-01-14T13:10:14.888Z,3.50
2019-01-14T13:12:43.403Z,3.30
2019-01-14T13:15:14.193Z,2.90
2019-01-14T13:17:42.427Z,2.90
2019-01-14T13:20:15.541Z,2.90
2019-01-14T13:22:43.779Z,2.80
2019-01-14T13:25:12.208Z,2.50
2019-01-14T13:27:40.450Z,2.30
2019-01-14T13:30:16.979Z,2.20
2019-01-14T13:32:45.292Z,2.30
2019-01-14T13:35:13.554Z,2.30
2019-01-14T13:37:41.790Z,2.30
2019-01-14T13:40:11.995Z,2.40
2019-01-14T13:42:40.237Z,2.40
2019-01-14T13:45:17.000Z,2.60
2019-01-14T13:47:45.289Z,2.60
2019-01-14T13:50:24.245Z,2.70
2019-01-14T13:52:52.479Z,2.80
2019-01-14T13:55:20.730Z,2.80
2019-01-14T13:57:49.768Z,2.90
2019-01-14T14:00:22.900Z,2.90
2019-01-14T14:02:52.152Z,2.80
2019-01-14T14:05:20.407Z,2.80
2019-01-14T14:07:48.640Z,2.80
2019-01-14T14:10:25.254Z,2.90
2019-01-14T14:12:53.505Z,2.90
2019-01-14T14:15:22.279Z,2.80
2019-01-14T14:17:50.583Z,2.90
2019-01-14T14:20:19.193Z,2.90
2019-01-14T14:22:47.677Z,2.70
2019-01-14T14:25:15.995Z,1.90
2019-01-14T14:27:44.268Z,0.90
2019-01-14T14:30:28.076Z,0.40
2019-01-14T14:32:56.341Z,0.00
2019-01-14T14:35:24.600Z,-0.10
2019-01-14T14:37:52.834Z,-0.30
2019-01-14T14:40:21.101Z,-0.30
2019-01-14T14:42:49.345Z,0.00
2019-01-14T14:45:17.604Z,0.00
2019-01-14T14:47:45.855Z,0.00
2019-01-14T14:50:18.275Z,0.30
2019-01-14T14:52:46.502Z,0.40
2019-01-14T14:55:14.762Z,0.70
2019-01-14T14:57:43.934Z,0.90
2019-01-14T15:00:22.186Z,1.00
2019-01-14T15:02:50.456Z,1.00
2019-01-14T15:05:18.782Z,0.60
2019-01-14T15:07:47.076Z,0.40
2019-01-14T15:10:18.338Z,0.20
2019-01-14T15:12:46.650Z,0.10
2019-01-14T15:15:16.548Z,0.00
2019-01-14T15:17:44.771Z,0.00
2019-01-14T15:20:18.183Z,0.00
2019-01-14T15:22:46.424Z,0.00
2019-01-14T15:25:14.750Z,0.00
2019-01-14T15:27:42.994Z,0.10
2019-01-14T15:30:23.366Z,0.20
2019-01-14T15:32:52.543Z,0.10
2019-01-14T15:35:20.794Z,0.20
2019-01-14T15:37:49.042Z,0.10
2019-01-14T15:40:18.340Z,0.20
2019-01-14T15:42:46.639Z,0.20
2019-01-14T15:45:16.932Z,0.20
2019-01-14T15:47:45.182Z,0.20
2019-01-14T15:50:13.517Z,0.20
2019-01-14T15:52:41.742Z,0.10
2019-01-14T15:55:18.584Z,0.20
2019-01-14T15:57:46.854Z,0.20
2019-01-14T16:00:17.706Z,0.20
2019-01-14T16:02:46.069Z,0.30
2019-01-14T16:05:14.855Z,0.30
2019-01-14T16:07:43.126Z,0.30
2019-01-14T16:10:14.495Z,0.40
2019-01-14T16:12:42.794Z,0.40
2019-01-14T16:15:11.953Z,0.40
2019-01-14T16:17:40.204Z,0.40
2019-01-14T16:20:11.815Z,0.40
2019-01-14T16:22:40.118Z,0.40
2019-01-14T16:25:09.017Z,0.60
2019-01-14T16:27:37.366Z,0.60
2019-01-14T16:30:21.779Z,0.70
2019-01-14T16:32:50.090Z,0.80
2019-01-14T16:35:18.357Z,0.90
2019-01-14T16:37:46.624Z,0.90
2019-01-14T16:40:18.188Z,0.90
2019-01-14T16:42:45.896Z,0.90
2019-01-14T16:45:16.853Z,1.00
2019-01-14T16:47:45.083Z,1.00
2019-01-14T16:50:14.682Z,1.00
2019-01-14T16:52:42.936Z,1.10
2019-01-14T16:55:12.454Z,1.00
2019-01-14T16:57:40.719Z,1.00
2019-01-14T17:00:14.862Z,1.00
2019-01-14T17:02:43.210Z,1.10
2019-01-14T17:05:13.626Z,1.00
2019-01-14T17:07:41.952Z,1.00
2019-01-14T17:10:12.761Z,1.00
2019-01-14T17:12:41.090Z,0.90
2019-01-14T17:15:09.359Z,1.00
2019-01-14T17:17:37.768Z,0.90
2019-01-14T17:20:09.275Z,0.90
2019-01-14T17:22:37.526Z,0.90
2019-01-14T17:25:06.170Z,0.90
2019-01-14T17:27:34.442Z,0.90
2019-01-14T17:30:02.707Z,0.80
2019-01-14T17:32:30.960Z,0.80
2019-01-14T17:34:59.218Z,0.80
2019-01-14T17:37:27.472Z,0.80
2019-01-14T17:39:55.719Z,0.90
2019-01-14T17:42:24.252Z,0.80
2019-01-14T17:44:52.838Z,0.80
2019-01-14T17:47:21.090Z,0.80
2019-01-14T17:49:49.323Z,0.70
2019-01-14T17:52:17.590Z,0.70
2019-01-14T17:54:45.838Z,0.70
2019-01-14T17:57:14.084Z,0.70
2019-01-14T17:59:42.319Z,1.00
2019-01-14T18:02:10.560Z,0.80
2019-01-14T18:04:38.788Z,0.70
2019-01-14T18:07:07.048Z,0.70
2019-01-14T18:09:35.292Z,0.70
2019-01-14T18:12:03.559Z,0.70
2019-01-14T18:14:31.787Z,0.70
2019-01-14T18:17:00.038Z,0.70
2019-01-14T18:19:28.284Z,0.70
2019-01-14T18:21:56.559Z,0.60
2019-01-14T18:24:24.779Z,0.60
2019-01-14T18:26:53.043Z,0.60
2019-01-14T18:29:21.281Z,0.60
2019-01-14T18:31:49.540Z,0.60
2019-01-14T18:34:17.767Z,0.60
2019-01-14T18:36:46.042Z,0.60
2019-01-14T18:39:14.299Z,0.50
2019-01-14T18:41:42.609Z,0.60
2019-01-14T18:44:10.851Z,0.60
2019-01-14T18:46:39.141Z,0.60
2019-01-14T18:49:07.472Z,0.60
2019-01-14T18:51:35.764Z,0.60
2019-01-14T18:54:04.025Z,0.60
2019-01-14T18:56:32.283Z,0.70
2019-01-14T18:59:00.542Z,0.60
2019-01-14T19:01:29.011Z,0.60
2019-01-14T19:03:57.369Z,0.60
2019-01-14T19:06:25.685Z,0.60
2019-01-14T19:08:53.931Z,0.50
2019-01-14T19:11:22.939Z,0.60
2019-01-14T19:13:51.207Z,0.60
2019-01-14T19:16:19.463Z,0.50
2019-01-14T19:18:47.721Z,0.60
2019-01-14T19:21:16.066Z,0.60
2019-01-14T19:23:44.359Z,0.60
2019-01-14T19:26:12.615Z,0.60
2019-01-14T19:28:40.866Z,0.60
2019-01-14T19:31:09.119Z,0.50
2019-01-14T19:33:37.385Z,0.50
2019-01-14T19:36:05.653Z,0.50
2019-01-14T19:38:33.909Z,0.40
2019-01-14T19:41:02.281Z,0.40
2019-01-14T19:43:30.598Z,0.50
2019-01-14T19:45:58.926Z,0.40
2019-01-14T19:48:27.186Z,0.40
2019-01-14T19:50:55.532Z,0.90
2019-01-14T19:53:23.788Z,0.60
2019-01-14T19:55:52.953Z,0.40
2019-01-14T19:58:21.218Z,0.40
2019-01-14T20:00:49.486Z,0.40
2019-01-14T20:03:17.727Z,0.40
2019-01-14T20:05:45.977Z,0.50
2019-01-14T20:08:15.861Z,0.50
2019-01-14T20:10:44.155Z,0.50
2019-01-14T20:13:12.435Z,0.40
2019-01-14T20:15:40.679Z,0.50
2019-01-14T20:18:09.030Z,0.40
2019-01-14T20:20:37.350Z,0.50
2019-01-14T20:23:05.673Z,0.50
2019-01-14T20:25:33.921Z,0.40
2019-01-14T20:28:02.171Z,0.50
2019-01-14T20:30:30.483Z,0.50
2019-01-14T20:32:58.813Z,0.50
2019-01-14T20:35:27.059Z,0.70
2019-01-14T20:37:55.323Z,0.70
2019-01-14T20:40:23.569Z,0.70
2019-01-14T20:42:51.856Z,0.70
2019-01-14T20:45:20.087Z,0.80
2019-01-14T20:47:48.345Z,0.80
2019-01-14T20:50:18.111Z,0.80
2019-01-14T20:52:46.405Z,0.80
2019-01-14T20:55:14.632Z,0.90
2019-01-14T20:57:42.893Z,0.90
2019-01-14T21:00:16.426Z,0.90
2019-01-14T21:02:44.685Z,0.90
2019-01-14T21:05:12.988Z,0.90
2019-01-14T21:07:41.243Z,0.90
2019-01-14T21:10:12.757Z,0.90
2019-01-14T21:12:41.137Z,0.80
2019-01-14T21:15:11.233Z,0.90
2019-01-14T21:17:39.467Z,0.80
2019-01-14T21:20:19.062Z,0.80
2019-01-14T21:22:47.378Z,0.80
2019-01-14T21:25:15.644Z,0.80
2019-01-14T21:27:43.915Z,0.80
2019-01-14T21:30:16.185Z,0.80
2019-01-14T21:32:44.435Z,0.80
2019-01-14T21:35:12.685Z,0.80
2019-01-14T21:37:40.977Z,0.80
2019-01-14T21:40:11.308Z,0.80
2019-01-14T21:42:39.805Z,0.80
2019-01-14T21:45:13.085Z,0.80
2019-01-14T21:47:41.327Z,0.80
2019-01-14T21:50:20.448Z,0.80
2019-01-14T21:52:48.695Z,0.80
2019-01-14T21:55:21.487Z,0.80
2019-01-14T21:57:49.743Z,0.80
2019-01-14T22:00:20.604Z,0.80
2019-01-14T22:02:48.855Z,0.80
2019-01-14T22:05:17.133Z,0.80
2019-01-14T22:07:45.743Z,0.80
2019-01-14T22:10:16.803Z,0.80
2019-01-14T22:12:45.065Z,0.80
2019-01-14T22:15:13.389Z,0.80
2019-01-14T22:17:41.632Z,0.80
2019-01-14T22:20:18.244Z,0.80
2019-01-14T22:22:46.559Z,0.80
2019-01-14T22:25:14.802Z,0.80
2019-01-14T22:27:43.147Z,0.80
2019-01-14T22:30:16.444Z,0.80
2019-01-14T22:32:44.695Z,0.80
2019-01-14T22:35:12.978Z,0.80
2019-01-14T22:37:41.224Z,0.80
2019-01-14T22:40:13.716Z,0.80
2019-01-14T22:42:42.013Z,0.80
2019-01-14T22:45:10.998Z,0.80
2019-01-14T22:47:39.253Z,0.80
2019-01-14T22:50:17.913Z,0.80
2019-01-14T22:52:46.153Z,0.80
2019-01-14T22:55:14.392Z,0.70
2019-01-14T22:57:42.654Z,0.80
2019-01-14T23:00:47.105Z,0.70
2019-01-14T23:03:15.363Z,0.70
2019-01-14T23:05:43.610Z,0.70
2019-01-14T23:08:12.019Z,0.70
2019-01-14T23:10:40.273Z,0.60
2019-01-14T23:13:08.542Z,0.60
2019-01-14T23:15:36.780Z,0.50
2019-01-14T23:18:05.046Z,0.50
2019-01-14T23:20:33.284Z,0.50
2019-01-14T23:23:01.555Z,0.50
2019-01-14T23:25:29.815Z,0.50
2019-01-14T23:27:58.065Z,0.50
2019-01-14T23:30:26.321Z,0.60
2019-01-14T23:32:54.571Z,0.60
2019-01-14T23:35:23.648Z,0.60
2019-01-14T23:37:51.951Z,0.60
2019-01-14T23:40:20.187Z,0.60
2019-01-14T23:42:48.435Z,0.60
2019-01-14T23:45:16.682Z,0.60
2019-01-14T23:47:45.001Z,0.60
2019-01-14T23:50:13.255Z,0.60
2019-01-14T23:52:41.495Z,0.60
2019-01-14T23:55:09.751Z,0.60
2019-01-14T23:57:37.985Z,0.70
